sensor_id;sensor_type;location;lat;lon;timestamp;pressure;altitude;pressure_sealevel;temperature;humidity
19600;BME280;9947;57.722;12.012;2023-02-15T00:00:28;102608.16;;;2.46;100.00
19600;BME280;9947;57.722;12.012;2023-02-15T00:03:01;102605.47;;;2.46;100.00
19600;BME280;9947;57.722;12.012;2023-02-15T00:05:31;102596.66;;;2.41;100.00
19600;BME280;9947;57.722;12.012;2023-02-15T00:08:06;102591.31;;;2.41;100.00
19600;BME280;9947;57.722;12.012;2023-02-15T00:10:35;102585.00;;;2.46;100.00
19600;BME280;9947;57.722;12.012;2023-02-15T00:13:12;102589.44;;;2.47;100.00
19600;BME280;9947;57.722;12.012;2023-02-15T00:15:41;102584.06;;;2.51;100.00
19600;BME280;9947;57.722;12.012;2023-02-15T00:18:16;102591.09;;;2.56;100.00
19600;BME280;9947;57.722;12.012;2023-02-15T00:20:43;102585.75;;;2.56;100.00
19600;BME280;9947;57.722;12.012;2023-02-15T00:23:17;102583.03;;;2.62;100.00
19600;BME280;9947;57.722;12.012;2023-02-15T00:25:46;102577.06;;;2.42;100.00
19600;BME280;9947;57.722;12.012;2023-02-15T00:28:27;102580.50;;;2.50;100.00
19600;BME280;9947;57.722;12.012;2023-02-15T00:30:54;102578.75;;;2.47;100.00
19600;BME280;9947;57.722;12.012;2023-02-15T00:33:28;102575.03;;;2.59;100.00
19600;BME280;9947;57.722;12.012;2023-02-15T00:35:56;102572.41;;;2.56;100.00
19600;BME280;9947;57.722;12.012;2023-02-15T00:38:35;102569.72;;;2.56;100.00
19600;BME280;9947;57.722;12.012;2023-02-15T00:41:06;102561.00;;;2.45;100.00
19600;BME280;9947;57.722;12.012;2023-02-15T00:43:41;102561.75;;;2.55;100.00
19600;BME280;9947;57.722;12.012;2023-02-15T00:46:11;102567.16;;;2.50;100.00
19600;BME280;9947;57.722;12.012;2023-02-15T00:48:51;102572.50;;;2.50;100.00
19600;BME280;9947;57.722;12.012;2023-02-15T00:51:18;102559.97;;;2.54;100.00
19600;BME280;9947;57.722;12.012;2023-02-15T00:53:53;102566.16;;;2.57;100.00
19600;BME280;9947;57.722;12.012;2023-02-15T00:56:29;102568.03;;;2.51;100.00
19600;BME280;9947;57.722;12.012;2023-02-15T00:59:12;102560.97;;;2.48;100.00
19600;BME280;9947;57.722;12.012;2023-02-15T01:01:39;102555.69;;;2.43;100.00
19600;BME280;9947;57.722;12.012;2023-02-15T01:04:21;102561.81;;;2.50;100.00
19600;BME280;9947;57.722;12.012;2023-02-15T01:06:49;102553.78;;;2.52;100.00
19600;BME280;9947;57.722;12.012;2023-02-15T01:09:25;102543.22;;;2.44;100.00
19600;BME280;9947;57.722;12.012;2023-02-15T01:11:56;102532.56;;;2.44;100.00
19600;BME280;9947;57.722;12.012;2023-02-15T01:14:32;102538.94;;;2.32;100.00
19600;BME280;9947;57.722;12.012;2023-02-15T01:17:06;102536.97;;;2.45;100.00
19600;BME280;9947;57.722;12.012;2023-02-15T01:19:44;102531.78;;;2.36;100.00
19600;BME280;9947;57.722;12.012;2023-02-15T01:22:15;102529.84;;;2.45;100.00
19600;BME280;9947;57.722;12.012;2023-02-15T01:24:51;102529.97;;;2.39;100.00
19600;BME280;9947;57.722;12.012;2023-02-15T01:27:26;102538.03;;;2.35;100.00
19600;BME280;9947;57.722;12.012;2023-02-15T01:29:57;102530.88;;;2.37;100.00
19600;BME280;9947;57.722;12.012;2023-02-15T01:32:31;102522.00;;;2.36;100.00
19600;BME280;9947;57.722;12.012;2023-02-15T01:34:57;102523.94;;;2.24;100.00
19600;BME280;9947;57.722;12.012;2023-02-15T01:37:32;102510.47;;;2.34;100.00
19600;BME280;9947;57.722;12.012;2023-02-15T01:40:08;102514.00;;;2.35;100.00
19600;BME280;9947;57.722;12.012;2023-02-15T01:42:42;102506.88;;;2.35;100.00
19600;BME280;9947;57.722;12.012;2023-02-15T01:45:20;102500.56;;;2.41;100.00
19600;BME280;9947;57.722;12.012;2023-02-15T01:47:58;102501.25;;;2.54;100.00
19600;BME280;9947;57.722;12.012;2023-02-15T01:50:35;102495.16;;;2.45;100.00
19600;BME280;9947;57.722;12.012;2023-02-15T01:53:13;102496.94;;;2.45;100.00
19600;BME280;9947;57.722;12.012;2023-02-15T01:55:45;102484.34;;;2.53;100.00
19600;BME280;9947;57.722;12.012;2023-02-15T01:58:21;102482.59;;;2.52;100.00
19600;BME280;9947;57.722;12.012;2023-02-15T02:00:50;102483.53;;;2.50;100.00
19600;BME280;9947;57.722;12.012;2023-02-15T02:03:32;102475.66;;;2.40;100.00
19600;BME280;9947;57.722;12.012;2023-02-15T02:06:09;102484.50;;;2.44;100.00
19600;BME280;9947;57.722;12.012;2023-02-15T02:08:37;102484.56;;;2.41;100.00
19600;BME280;9947;57.722;12.012;2023-02-15T02:11:12;102473.84;;;2.42;100.00
19600;BME280;9947;57.722;12.012;2023-02-15T02:13:54;102484.56;;;2.41;100.00
19600;BME280;9947;57.722;12.012;2023-02-15T02:16:25;102468.53;;;2.41;100.00
19600;BME280;9947;57.722;12.012;2023-02-15T02:19:19;102465.81;;;2.44;100.00
19600;BME280;9947;57.722;12.012;2023-02-15T02:22:25;102468.50;;;2.44;100.00
19600;BME280;9947;57.722;12.012;2023-02-15T02:25:30;102463.81;;;2.57;100.00
19600;BME280;9947;57.722;12.012;2023-02-15T02:28:22;102454.13;;;2.51;100.00
19600;BME280;9947;57.722;12.012;2023-02-15T02:31:18;102455.84;;;2.55;100.00
19600;BME280;9947;57.722;12.012;2023-02-15T02:34:01;102451.44;;;2.53;100.00
19600;BME280;9947;57.722;12.012;2023-02-15T02:36:35;102445.44;;;2.40;100.00
19600;BME280;9947;57.722;12.012;2023-02-15T02:39:23;102444.44;;;2.45;100.00
19600;BME280;9947;57.722;12.012;2023-02-15T02:42:01;102436.56;;;2.38;100.00
19600;BME280;9947;57.722;12.012;2023-02-15T02:44:41;102440.16;;;2.35;100.00
19600;BME280;9947;57.722;12.012;2023-02-15T02:47:19;102425.88;;;2.38;100.00
19600;BME280;9947;57.722;12.012;2023-02-15T02:50:00;102439.34;;;2.29;100.00
19600;BME280;9947;57.722;12.012;2023-02-15T02:52:39;102426.91;;;2.28;100.00
19600;BME280;9947;57.722;12.012;2023-02-15T02:55:11;102423.28;;;2.35;100.00
19600;BME280;9947;57.722;12.012;2023-02-15T02:57:52;102426.84;;;2.32;100.00
19600;BME280;9947;57.722;12.012;2023-02-15T03:00:22;102423.84;;;2.54;100.00
19600;BME280;9947;57.722;12.012;2023-02-15T03:03:01;102419.56;;;2.43;100.00
19600;BME280;9947;57.722;12.012;2023-02-15T03:05:34;102408.94;;;2.40;100.00
19600;BME280;9947;57.722;12.012;2023-02-15T03:08:10;102415.16;;;2.41;100.00
19600;BME280;9947;57.722;12.012;2023-02-15T03:10:44;102404.41;;;2.45;100.00
19600;BME280;9947;57.722;12.012;2023-02-15T03:13:17;102399.16;;;2.41;100.00
19600;BME280;9947;57.722;12.012;2023-02-15T03:15:45;102397.41;;;2.38;100.00
19600;BME280;9947;57.722;12.012;2023-02-15T03:18:40;102402.63;;;2.46;100.00
19600;BME280;9947;57.722;12.012;2023-02-15T03:21:27;102395.59;;;2.40;100.00
19600;BME280;9947;57.722;12.012;2023-02-15T03:24:07;102400.00;;;2.43;100.00
19600;BME280;9947;57.722;12.012;2023-02-15T03:26:37;102393.00;;;2.36;100.00
19600;BME280;9947;57.722;12.012;2023-02-15T03:29:12;102392.00;;;2.43;100.00
19600;BME280;9947;57.722;12.012;2023-02-15T03:31:43;102399.47;;;2.20;100.00
19600;BME280;9947;57.722;12.012;2023-02-15T03:34:18;102392.22;;;2.28;100.00
19600;BME280;9947;57.722;12.012;2023-02-15T03:36:58;102394.78;;;2.34;100.00
19600;BME280;9947;57.722;12.012;2023-02-15T03:39:31;102387.66;;;2.36;100.00
19600;BME280;9947;57.722;12.012;2023-02-15T03:42:10;102375.22;;;2.35;100.00
19600;BME280;9947;57.722;12.012;2023-02-15T03:44:49;102381.50;;;2.31;100.00
19600;BME280;9947;57.722;12.012;2023-02-15T03:47:27;102377.94;;;2.32;100.00
19600;BME280;9947;57.722;12.012;2023-02-15T03:50:00;102364.41;;;2.44;100.00
19600;BME280;9947;57.722;12.012;2023-02-15T03:52:58;102369.88;;;2.36;100.00
19600;BME280;9947;57.722;12.012;2023-02-15T03:55:27;102369.03;;;2.34;100.00
19600;BME280;9947;57.722;12.012;2023-02-15T03:58:02;102365.28;;;2.44;100.00
19600;BME280;9947;57.722;12.012;2023-02-15T04:00:51;102366.34;;;2.34;100.00
19600;BME280;9947;57.722;12.012;2023-02-15T04:03:49;102364.53;;;2.36;100.00
19600;BME280;9947;57.722;12.012;2023-02-15T04:06:24;102355.69;;;2.31;100.00
19600;BME280;9947;57.722;12.012;2023-02-15T04:08:59;102363.66;;;2.36;100.00
19600;BME280;9947;57.722;12.012;2023-02-15T04:11:50;102362.78;;;2.35;100.00
19600;BME280;9947;57.722;12.012;2023-02-15T04:14:23;102359.22;;;2.35;100.00
19600;BME280;9947;57.722;12.012;2023-02-15T04:17:14;102356.50;;;2.38;100.00
19600;BME280;9947;57.722;12.012;2023-02-15T04:19:41;102358.31;;;2.36;100.00
19600;BME280;9947;57.722;12.012;2023-02-15T04:22:32;102355.75;;;2.28;100.00
19600;BME280;9947;57.722;12.012;2023-02-15T04:25:18;102354.88;;;2.28;100.00
19600;BME280;9947;57.722;12.012;2023-02-15T04:27:58;102349.59;;;2.25;100.00
19600;BME280;9947;57.722;12.012;2023-02-15T04:30:25;102346.97;;;2.22;100.00
19600;BME280;9947;57.722;12.012;2023-02-15T04:32:58;102347.66;;;2.33;100.00
19600;BME280;9947;57.722;12.012;2023-02-15T04:35:26;102339.66;;;2.33;100.00
19600;BME280;9947;57.722;12.012;2023-02-15T04:38:00;102340.56;;;2.32;100.00
19600;BME280;9947;57.722;12.012;2023-02-15T04:40:28;102344.31;;;2.22;100.00
19600;BME280;9947;57.722;12.012;2023-02-15T04:43:01;102338.84;;;2.29;100.00
19600;BME280;9947;57.722;12.012;2023-02-15T04:45:28;102332.78;;;2.20;100.00
19600;BME280;9947;57.722;12.012;2023-02-15T04:48:08;102333.69;;;2.19;100.00
19600;BME280;9947;57.722;12.012;2023-02-15T04:50:35;102341.81;;;2.11;100.00
19600;BME280;9947;57.722;12.012;2023-02-15T04:53:08;102331.81;;;2.24;100.00
19600;BME280;9947;57.722;12.012;2023-02-15T04:55:37;102332.69;;;2.24;100.00
19600;BME280;9947;57.722;12.012;2023-02-15T04:58:11;102329.25;;;2.17;100.00
19600;BME280;9947;57.722;12.012;2023-02-15T05:00:45;102322.25;;;2.12;100.00
19600;BME280;9947;57.722;12.012;2023-02-15T05:03:18;102323.00;;;2.19;100.00
19600;BME280;9947;57.722;12.012;2023-02-15T05:05:45;102309.69;;;2.17;100.00
19600;BME280;9947;57.722;12.012;2023-02-15T05:08:18;102311.69;;;2.04;100.00
19600;BME280;9947;57.722;12.012;2023-02-15T05:10:48;102312.41;;;2.15;100.00
19600;BME280;9947;57.722;12.012;2023-02-15T05:13:21;102308.81;;;2.16;100.00
19600;BME280;9947;57.722;12.012;2023-02-15T05:15:48;102297.50;;;2.02;100.00
19600;BME280;9947;57.722;12.012;2023-02-15T05:18:23;102294.75;;;2.05;100.00
19600;BME280;9947;57.722;12.012;2023-02-15T05:20:56;102300.06;;;2.07;100.00
19600;BME280;9947;57.722;12.012;2023-02-15T05:23:31;102300.94;;;2.07;100.00
19600;BME280;9947;57.722;12.012;2023-02-15T05:25:59;102303.84;;;1.95;100.00
19600;BME280;9947;57.722;12.012;2023-02-15T05:28:50;102293.88;;;2.05;100.00
19600;BME280;9947;57.722;12.012;2023-02-15T05:31:23;102298.19;;;2.15;100.00
19600;BME280;9947;57.722;12.012;2023-02-15T05:33:57;102301.72;;;2.15;100.00
19600;BME280;9947;57.722;12.012;2023-02-15T05:36:30;102293.78;;;2.12;100.00
19600;BME280;9947;57.722;12.012;2023-02-15T05:38:57;102292.91;;;2.12;100.00
19600;BME280;9947;57.722;12.012;2023-02-15T05:41:38;102290.16;;;2.16;100.00
19600;BME280;9947;57.722;12.012;2023-02-15T05:44:12;102297.25;;;2.17;100.00
19600;BME280;9947;57.722;12.012;2023-02-15T05:46:45;102299.28;;;2.02;100.00
19600;BME280;9947;57.722;12.012;2023-02-15T05:49:12;102288.50;;;2.08;100.00
19600;BME280;9947;57.722;12.012;2023-02-15T05:51:45;102294.06;;;1.96;100.00
19600;BME280;9947;57.722;12.012;2023-02-15T05:54:12;102280.66;;;1.99;100.00
19600;BME280;9947;57.722;12.012;2023-02-15T05:56:47;102285.94;;;2.02;100.00
19600;BME280;9947;57.722;12.012;2023-02-15T05:59:14;102282.34;;;2.04;100.00
19600;BME280;9947;57.722;12.012;2023-02-15T06:01:47;102280.69;;;1.97;100.00
19600;BME280;9947;57.722;12.012;2023-02-15T06:04:14;102280.50;;;2.08;100.00
19600;BME280;9947;57.722;12.012;2023-02-15T06:06:47;102279.84;;;1.95;100.00
19600;BME280;9947;57.722;12.012;2023-02-15T06:09:14;102286.19;;;1.88;100.00
19600;BME280;9947;57.722;12.012;2023-02-15T06:11:51;102281.63;;;1.95;100.00
19600;BME280;9947;57.722;12.012;2023-02-15T06:14:18;102276.38;;;1.90;100.00
19600;BME280;9947;57.722;12.012;2023-02-15T06:16:51;102274.66;;;1.86;100.00
19600;BME280;9947;57.722;12.012;2023-02-15T06:19:18;102272.84;;;1.88;100.00
19600;BME280;9947;57.722;12.012;2023-02-15T06:21:52;102266.72;;;1.83;100.00
19600;BME280;9947;57.722;12.012;2023-02-15T06:24:20;102267.53;;;1.87;100.00
19600;BME280;9947;57.722;12.012;2023-02-15T06:26:55;102274.66;;;1.86;100.00
19600;BME280;9947;57.722;12.012;2023-02-15T06:29:22;102262.47;;;1.70;100.00
19600;BME280;9947;57.722;12.012;2023-02-15T06:31:55;102271.25;;;1.76;100.00
19600;BME280;9947;57.722;12.012;2023-02-15T06:34:22;102271.22;;;1.78;100.00
19600;BME280;9947;57.722;12.012;2023-02-15T06:36:55;102268.53;;;1.78;100.00
19600;BME280;9947;57.722;12.012;2023-02-15T06:39:35;102261.38;;;1.81;100.00
19600;BME280;9947;57.722;12.012;2023-02-15T06:42:04;102258.59;;;1.91;100.00
19600;BME280;9947;57.722;12.012;2023-02-15T06:44:37;102256.00;;;1.86;100.00
19600;BME280;9947;57.722;12.012;2023-02-15T06:47:11;102250.75;;;1.78;100.00
19600;BME280;9947;57.722;12.012;2023-02-15T06:49:37;102252.56;;;1.78;100.00
19600;BME280;9947;57.722;12.012;2023-02-15T06:52:10;102263.16;;;1.81;100.00
19600;BME280;9947;57.722;12.012;2023-02-15T06:54:37;102262.25;;;1.82;100.00
19600;BME280;9947;57.722;12.012;2023-02-15T06:57:12;102266.63;;;1.88;100.00
19600;BME280;9947;57.722;12.012;2023-02-15T06:59:39;102261.41;;;1.80;100.00
19600;BME280;9947;57.722;12.012;2023-02-15T07:02:13;102270.25;;;1.83;100.00
19600;BME280;9947;57.722;12.012;2023-02-15T07:04:40;102258.91;;;1.69;100.00
19600;BME280;9947;57.722;12.012;2023-02-15T07:07:16;102255.28;;;1.73;100.00
19600;BME280;9947;57.722;12.012;2023-02-15T07:09:43;102259.81;;;1.68;100.00
19600;BME280;9947;57.722;12.012;2023-02-15T07:12:18;102253.53;;;1.72;100.00
19600;BME280;9947;57.722;12.012;2023-02-15T07:15:02;102249.09;;;1.73;100.00
19600;BME280;9947;57.722;12.012;2023-02-15T07:17:37;102256.16;;;1.75;100.00
19600;BME280;9947;57.722;12.012;2023-02-15T07:20:05;102251.66;;;1.79;100.00
19600;BME280;9947;57.722;12.012;2023-02-15T07:22:40;102260.72;;;1.67;100.00
19600;BME280;9947;57.722;12.012;2023-02-15T07:25:08;102249.16;;;1.68;100.00
19600;BME280;9947;57.722;12.012;2023-02-15T07:27:44;102255.31;;;1.72;100.00
19600;BME280;9947;57.722;12.012;2023-02-15T07:30:13;102252.69;;;1.70;100.00
19600;BME280;9947;57.722;12.012;2023-02-15T07:32:46;102252.00;;;1.56;100.00
19600;BME280;9947;57.722;12.012;2023-02-15T07:35:31;102256.28;;;1.68;100.00
19600;BME280;9947;57.722;12.012;2023-02-15T07:38:11;102250.91;;;1.71;100.00
19600;BME280;9947;57.722;12.012;2023-02-15T07:40:38;102253.72;;;1.62;100.00
19600;BME280;9947;57.722;12.012;2023-02-15T07:43:13;102249.16;;;1.68;100.00
19600;BME280;9947;57.722;12.012;2023-02-15T07:45:40;102249.09;;;1.71;100.00
19600;BME280;9947;57.722;12.012;2023-02-15T07:48:13;102253.44;;;1.78;100.00
19600;BME280;9947;57.722;12.012;2023-02-15T07:50:40;102249.91;;;1.76;100.00
19600;BME280;9947;57.722;12.012;2023-02-15T07:53:13;102240.16;;;1.75;100.00
19600;BME280;9947;57.722;12.012;2023-02-15T07:55:40;102246.47;;;1.70;100.00
19600;BME280;9947;57.722;12.012;2023-02-15T07:58:15;102241.31;;;1.59;100.00
19600;BME280;9947;57.722;12.012;2023-02-15T08:00:42;102247.59;;;1.57;100.00
19600;BME280;9947;57.722;12.012;2023-02-15T08:03:27;102236.03;;;1.58;100.00
19600;BME280;9947;57.722;12.012;2023-02-15T08:05:56;102241.19;;;1.67;100.00
19600;BME280;9947;57.722;12.012;2023-02-15T08:08:30;102231.44;;;1.66;100.00
19600;BME280;9947;57.722;12.012;2023-02-15T08:11:02;102227.00;;;1.65;100.00
19600;BME280;9947;57.722;12.012;2023-02-15T08:13:56;102218.06;;;1.67;100.00
19600;BME280;9947;57.722;12.012;2023-02-15T08:16:32;102225.19;;;1.67;100.00
19600;BME280;9947;57.722;12.012;2023-02-15T08:19:07;102213.38;;;1.81;100.00
19600;BME280;9947;57.722;12.012;2023-02-15T08:21:42;102205.38;;;1.81;100.00
19600;BME280;9947;57.722;12.012;2023-02-15T08:24:10;102206.28;;;1.80;100.00
19600;BME280;9947;57.722;12.012;2023-02-15T08:26:44;102210.47;;;1.97;100.00
19600;BME280;9947;57.722;12.012;2023-02-15T08:29:14;102196.53;;;1.79;100.00
19600;BME280;9947;57.722;12.012;2023-02-15T08:31:48;102199.03;;;1.90;100.00
19600;BME280;9947;57.722;12.012;2023-02-15T08:34:17;102190.28;;;1.80;100.00
19600;BME280;9947;57.722;12.012;2023-02-15T08:36:58;102195.59;;;1.82;100.00
19600;BME280;9947;57.722;12.012;2023-02-15T08:39:29;102190.19;;;1.88;100.00
19600;BME280;9947;57.722;12.012;2023-02-15T08:42:09;102186.50;;;1.95;100.00
19600;BME280;9947;57.722;12.012;2023-02-15T08:44:38;102179.13;;;2.09;100.00
19600;BME280;9947;57.722;12.012;2023-02-15T08:47:12;102182.72;;;2.05;100.00
19600;BME280;9947;57.722;12.012;2023-02-15T08:49:39;102176.53;;;2.05;100.00
19600;BME280;9947;57.722;12.012;2023-02-15T08:52:13;102174.84;;;1.99;100.00
19600;BME280;9947;57.722;12.012;2023-02-15T08:54:47;102163.22;;;2.03;100.00
19600;BME280;9947;57.722;12.012;2023-02-15T08:57:21;102167.50;;;2.13;100.00
19600;BME280;9947;57.722;12.012;2023-02-15T08:59:51;102158.66;;;2.10;100.00
19600;BME280;9947;57.722;12.012;2023-02-15T09:02:25;102167.47;;;2.15;100.00
19600;BME280;9947;57.722;12.012;2023-02-15T09:04:58;102150.63;;;2.11;100.00
19600;BME280;9947;57.722;12.012;2023-02-15T09:07:32;102156.75;;;2.16;100.00
19600;BME280;9947;57.722;12.012;2023-02-15T09:10:06;102149.78;;;2.08;100.00
19600;BME280;9947;57.722;12.012;2023-02-15T09:12:40;102151.38;;;2.18;100.00
19600;BME280;9947;57.722;12.012;2023-02-15T09:15:16;102144.34;;;2.14;100.00
19600;BME280;9947;57.722;12.012;2023-02-15T09:17:50;102148.56;;;2.26;100.00
19600;BME280;9947;57.722;12.012;2023-02-15T09:20:17;102146.00;;;2.21;100.00
19600;BME280;9947;57.722;12.012;2023-02-15T09:22:51;102148.59;;;2.24;100.00
19600;BME280;9947;57.722;12.012;2023-02-15T09:25:19;102140.50;;;2.29;100.00
19600;BME280;9947;57.722;12.012;2023-02-15T09:27:53;102142.22;;;2.31;100.00
19600;BME280;9947;57.722;12.012;2023-02-15T09:30:21;102139.53;;;2.31;100.00
19600;BME280;9947;57.722;12.012;2023-02-15T09:33:01;102134.22;;;2.31;100.00
19600;BME280;9947;57.722;12.012;2023-02-15T09:35:28;102134.16;;;2.36;100.00
19600;BME280;9947;57.722;12.012;2023-02-15T09:38:01;102133.28;;;2.32;100.00
19600;BME280;9947;57.722;12.012;2023-02-15T09:40:32;102132.22;;;2.42;100.00
19600;BME280;9947;57.722;12.012;2023-02-15T09:43:25;102135.94;;;2.35;100.00
19600;BME280;9947;57.722;12.012;2023-02-15T09:46:10;102133.16;;;2.40;100.00
19600;BME280;9947;57.722;12.012;2023-02-15T09:48:59;102126.03;;;2.40;100.00
19600;BME280;9947;57.722;12.012;2023-02-15T09:51:46;102108.16;;;2.44;100.00
19600;BME280;9947;57.722;12.012;2023-02-15T09:54:36;102120.78;;;2.37;100.00
19600;BME280;9947;57.722;12.012;2023-02-15T09:57:17;102114.47;;;2.40;100.00
19600;BME280;9947;57.722;12.012;2023-02-15T09:59:50;102104.66;;;2.42;100.00
19600;BME280;9947;57.722;12.012;2023-02-15T10:02:44;102101.03;;;2.44;100.00
19600;BME280;9947;57.722;12.012;2023-02-15T10:05:24;102103.81;;;2.40;100.00
19600;BME280;9947;57.722;12.012;2023-02-15T10:08:27;102118.22;;;2.30;100.00
19600;BME280;9947;57.722;12.012;2023-02-15T10:11:03;102111.09;;;2.30;100.00
19600;BME280;9947;57.722;12.012;2023-02-15T10:14:05;102106.72;;;2.28;100.00
19600;BME280;9947;57.722;12.012;2023-02-15T10:16:48;102104.66;;;2.42;100.00
19600;BME280;9947;57.722;12.012;2023-02-15T10:19:45;102095.09;;;2.30;100.00
19600;BME280;9947;57.722;12.012;2023-02-15T10:22:31;102088.09;;;2.25;100.00
19600;BME280;9947;57.722;12.012;2023-02-15T10:25:20;102088.78;;;2.36;100.00
19600;BME280;9947;57.722;12.012;2023-02-15T10:28:01;102089.94;;;2.23;100.00
19600;BME280;9947;57.722;12.012;2023-02-15T10:30:36;102085.41;;;2.26;100.00
19600;BME280;9947;57.722;12.012;2023-02-15T10:33:38;102076.38;;;2.32;100.00
19600;BME280;9947;57.722;12.012;2023-02-15T10:36:16;102081.75;;;2.30;100.00
19600;BME280;9947;57.722;12.012;2023-02-15T10:38:58;102090.59;;;2.32;100.00
19600;BME280;9947;57.722;12.012;2023-02-15T10:41:39;102092.16;;;2.44;100.00
19600;BME280;9947;57.722;12.012;2023-02-15T10:44:34;102090.03;;;2.58;100.00
19600;BME280;9947;57.722;12.012;2023-02-15T10:47:25;102085.56;;;2.60;100.00
19600;BME280;9947;57.722;12.012;2023-02-15T10:50:10;102085.50;;;2.63;100.00
19600;BME280;9947;57.722;12.012;2023-02-15T10:52:58;102082.44;;;2.80;100.00
19600;BME280;9947;57.722;12.012;2023-02-15T10:55:35;102080.16;;;2.63;100.00
19600;BME280;9947;57.722;12.012;2023-02-15T10:58:17;102077.53;;;2.62;100.00
19600;BME280;9947;57.722;12.012;2023-02-15T11:00:49;102082.91;;;2.60;100.00
19600;BME280;9947;57.722;12.012;2023-02-15T11:03:40;102069.56;;;2.60;100.00
19600;BME280;9947;57.722;12.012;2023-02-15T11:06:12;102071.03;;;2.73;100.00
19600;BME280;9947;57.722;12.012;2023-02-15T11:08:54;102071.91;;;2.74;100.00
19600;BME280;9947;57.722;12.012;2023-02-15T11:11:24;102061.72;;;2.51;100.00
19600;BME280;9947;57.722;12.012;2023-02-15T11:14:05;102069.00;;;2.83;100.00
19600;BME280;9947;57.722;12.012;2023-02-15T11:16:45;102061.06;;;2.80;100.00
19600;BME280;9947;57.722;12.012;2023-02-15T11:19:19;102062.03;;;2.77;100.00
19600;BME280;9947;57.722;12.012;2023-02-15T11:21:57;102063.50;;;2.91;100.00
19600;BME280;9947;57.722;12.012;2023-02-15T11:24:36;102068.94;;;2.86;100.00
19600;BME280;9947;57.722;12.012;2023-02-15T11:27:12;102066.22;;;2.89;100.00
19600;BME280;9947;57.722;12.012;2023-02-15T11:29:55;102061.69;;;2.93;100.00
19600;BME280;9947;57.722;12.012;2023-02-15T11:32:34;102049.41;;;2.84;100.00
19600;BME280;9947;57.722;12.012;2023-02-15T11:35:20;102056.78;;;2.73;100.00
19600;BME280;9947;57.722;12.012;2023-02-15T11:37:59;102052.97;;;2.83;100.00
19600;BME280;9947;57.722;12.012;2023-02-15T11:40:33;102050.19;;;2.89;100.00
19600;BME280;9947;57.722;12.012;2023-02-15T11:43:15;102047.59;;;2.85;100.00
19600;BME280;9947;57.722;12.012;2023-02-15T11:45:45;102044.22;;;2.78;100.00
19600;BME280;9947;57.722;12.012;2023-02-15T11:48:20;102052.13;;;2.81;100.00
19600;BME280;9947;57.722;12.012;2023-02-15T11:50:47;102050.91;;;2.96;100.00
19600;BME280;9947;57.722;12.012;2023-02-15T11:53:22;102050.22;;;2.88;100.00
19600;BME280;9947;57.722;12.012;2023-02-15T11:56:01;102042.97;;;2.93;100.00
19600;BME280;9947;57.722;12.012;2023-02-15T11:58:37;102039.03;;;3.07;100.00
19600;BME280;9947;57.722;12.012;2023-02-15T12:01:16;102041.78;;;3.04;100.00
19600;BME280;9947;57.722;12.012;2023-02-15T12:03:47;102037.94;;;3.16;100.00
19600;BME280;9947;57.722;12.012;2023-02-15T12:06:24;102025.63;;;3.09;100.00
19600;BME280;9947;57.722;12.012;2023-02-15T12:09:02;102023.00;;;3.07;100.00
19600;BME280;9947;57.722;12.012;2023-02-15T12:11:36;102034.53;;;3.09;100.00
19600;BME280;9947;57.722;12.012;2023-02-15T12:14:12;102020.53;;;3.00;100.00
19600;BME280;9947;57.722;12.012;2023-02-15T12:16:49;102007.97;;;3.03;100.00
19600;BME280;9947;57.722;12.012;2023-02-15T12:19:29;102001.59;;;3.09;100.00
19600;BME280;9947;57.722;12.012;2023-02-15T12:22:06;102000.06;;;2.99;100.00
19600;BME280;9947;57.722;12.012;2023-02-15T12:24:45;102003.47;;;3.05;100.00
19600;BME280;9947;57.722;12.012;2023-02-15T12:27:23;101996.03;;;3.18;100.00
19600;BME280;9947;57.722;12.012;2023-02-15T12:29:59;102003.16;;;3.18;100.00
19600;BME280;9947;57.722;12.012;2023-02-15T12:32:45;102003.09;;;3.21;100.00
19600;BME280;9947;57.722;12.012;2023-02-15T12:35:25;101993.72;;;3.38;100.00
19600;BME280;9947;57.722;12.012;2023-02-15T12:38:04;101988.09;;;3.15;100.00
19600;BME280;9947;57.722;12.012;2023-02-15T12:40:33;101987.09;;;3.19;100.00
19600;BME280;9947;57.722;12.012;2023-02-15T12:43:25;101975.34;;;3.25;100.00
19600;BME280;9947;57.722;12.012;2023-02-15T12:45:52;101975.00;;;3.38;100.00
19600;BME280;9947;57.722;12.012;2023-02-15T12:48:25;101970.53;;;3.39;100.00
19600;BME280;9947;57.722;12.012;2023-02-15T12:51:08;101977.03;;;3.29;100.00
19600;BME280;9947;57.722;12.012;2023-02-15T12:53:48;101967.91;;;3.36;100.00
19600;BME280;9947;57.722;12.012;2023-02-15T12:56:26;101966.94;;;3.40;100.00
19600;BME280;9947;57.722;12.012;2023-02-15T12:59:05;101958.13;;;3.35;100.00
19600;BME280;9947;57.722;12.012;2023-02-15T13:01:32;101955.19;;;3.46;100.00
19600;BME280;9947;57.722;12.012;2023-02-15T13:04:18;101950.44;;;3.55;100.00
19600;BME280;9947;57.722;12.012;2023-02-15T13:06:56;101952.47;;;3.47;100.00
19600;BME280;9947;57.722;12.012;2023-02-15T13:09:35;101957.53;;;3.25;100.00
19600;BME280;9947;57.722;12.012;2023-02-15T13:12:17;101953.84;;;3.29;100.00
19600;BME280;9947;57.722;12.012;2023-02-15T13:14:47;101952.84;;;3.33;100.00
19600;BME280;9947;57.722;12.012;2023-02-15T13:17:25;101952.97;;;3.29;100.00
19600;BME280;9947;57.722;12.012;2023-02-15T13:19:57;101943.28;;;3.25;100.00
19600;BME280;9947;57.722;12.012;2023-02-15T13:22:36;101940.50;;;3.29;100.00
19600;BME280;9947;57.722;12.012;2023-02-15T13:25:14;101936.84;;;3.32;100.00
19600;BME280;9947;57.722;12.012;2023-02-15T13:27:54;101937.53;;;3.40;100.00
19600;BME280;9947;57.722;12.012;2023-02-15T13:30:36;101933.22;;;3.34;100.00
19600;BME280;9947;57.722;12.012;2023-02-15T13:33:16;101928.19;;;3.24;100.00
19600;BME280;9947;57.722;12.012;2023-02-15T13:35:49;101918.72;;;3.10;100.00